createdAt,value
2019-03-21T00:00:11.794Z,8.80
2019-03-21T00:05:17.987Z,8.33
2019-03-21T00:10:59.730Z,7.67
2019-03-21T00:16:05.870Z,7.60
2019-03-21T00:21:11.932Z,8.10
2019-03-21T00:26:17.963Z,8.57
2019-03-21T00:31:24.025Z,10.20
2019-03-21T00:36:30.200Z,10.33
2019-03-21T00:41:36.198Z,10.80
2019-03-21T00:46:42.261Z,10.73
2019-03-21T00:51:48.416Z,10.87
2019-03-21T00:56:54.401Z,10.67
2019-03-21T01:02:00.479Z,10.10
2019-03-21T01:07:07.300Z,10.50
2019-03-21T01:12:13.786Z,10.07
2019-03-21T01:17:19.814Z,8.30
2019-03-21T01:22:25.831Z,9.03
2019-03-21T01:27:31.907Z,9.73
2019-03-21T01:32:37.960Z,8.60
2019-03-21T01:37:43.936Z,8.70
2019-03-21T01:42:50.004Z,8.77
2019-03-21T01:47:56.035Z,8.20
2019-03-21T01:53:02.164Z,8.27
2019-03-21T01:58:08.162Z,9.27
2019-03-21T02:03:14.212Z,9.57
2019-03-21T02:08:20.199Z,9.33
2019-03-21T02:13:26.147Z,9.50
2019-03-21T02:18:32.137Z,9.53
2019-03-21T02:23:38.215Z,11.28
2019-03-21T02:28:43.992Z,9.77
2019-03-21T02:33:49.926Z,9.60
2019-03-21T02:38:55.923Z,9.40
2019-03-21T02:44:02.020Z,8.63
2019-03-21T02:49:07.976Z,9.57
2019-03-21T02:54:13.807Z,10.17
2019-03-21T02:59:19.730Z,9.63
2019-03-21T03:04:25.697Z,9.37
2019-03-21T03:09:31.687Z,10.77
2019-03-21T03:14:37.674Z,11.30
2019-03-21T03:19:43.622Z,9.07
2019-03-21T03:24:49.832Z,10.33
2019-03-21T03:29:55.960Z,10.23
2019-03-21T03:35:01.838Z,10.17
2019-03-21T03:40:09.615Z,11.40
2019-03-21T03:45:36.251Z,10.50
2019-03-21T03:50:29.220Z,10.20
2019-03-21T03:55:35.375Z,10.63
2019-03-21T04:00:41.451Z,9.93
2019-03-21T04:05:47.547Z,10.87
2019-03-21T04:10:53.582Z,10.27
2019-03-21T04:15:59.677Z,9.83
2019-03-21T04:21:06.107Z,11.68
2019-03-21T04:26:15.573Z,12.20
2019-03-21T04:31:21.802Z,10.47
2019-03-21T04:36:27.799Z,9.70
2019-03-21T04:41:33.619Z,10.83
2019-03-21T04:46:39.424Z,9.27
2019-03-21T04:51:45.453Z,9.37
2019-03-21T04:56:51.343Z,9.43
2019-03-21T05:01:57.379Z,9.63
2019-03-21T05:07:03.354Z,9.20
2019-03-21T05:12:09.483Z,8.80
2019-03-21T05:17:15.329Z,8.97
2019-03-21T05:22:21.217Z,8.57
2019-03-21T05:27:27.009Z,9.27
2019-03-21T05:32:33.322Z,9.13
2019-03-21T05:37:39.181Z,9.97
2019-03-21T05:42:49.027Z,9.40
2019-03-21T05:47:55.097Z,9.67
2019-03-21T05:53:00.951Z,9.47
2019-03-21T05:58:06.830Z,10.00
2019-03-21T06:03:18.872Z,9.60
2019-03-21T06:08:27.950Z,9.30
2019-03-21T06:13:33.966Z,8.73
2019-03-21T06:19:12.921Z,9.30
2019-03-21T06:24:37.115Z,10.20
2019-03-21T06:29:43.111Z,9.90
2019-03-21T06:34:49.139Z,9.90
2019-03-21T06:39:55.161Z,9.30
2019-03-21T06:45:01.248Z,10.47
2019-03-21T06:50:07.606Z,10.80
2019-03-21T06:55:13.553Z,9.63
2019-03-21T07:00:19.475Z,10.43
2019-03-21T07:05:26.914Z,9.93
2019-03-21T07:10:32.980Z,10.03
2019-03-21T07:15:38.921Z,10.07
2019-03-21T07:20:44.914Z,9.80
2019-03-21T07:25:50.924Z,9.77
2019-03-21T07:30:56.857Z,9.87
2019-03-21T07:36:02.835Z,9.37
2019-03-21T07:41:08.708Z,9.57
2019-03-21T07:46:14.924Z,9.47
2019-03-21T07:51:20.987Z,9.30
2019-03-21T07:56:27.012Z,8.73
2019-03-21T08:01:33.155Z,8.87
2019-03-21T08:06:39.185Z,8.40
2019-03-21T08:11:45.193Z,8.50
2019-03-21T08:16:51.103Z,7.83
2019-03-21T08:21:57.108Z,7.93
2019-03-21T08:27:02.954Z,7.67
2019-03-21T08:32:08.786Z,8.50
2019-03-21T08:37:14.875Z,6.50
2019-03-21T08:42:20.737Z,6.33
2019-03-21T08:47:26.777Z,6.83
2019-03-21T08:52:32.852Z,5.60
2019-03-21T08:57:38.821Z,4.13
2019-03-21T09:02:44.934Z,4.27
2019-03-21T09:07:51.116Z,4.30
2019-03-21T09:12:57.157Z,3.10
2019-03-21T09:18:03.232Z,3.70
2019-03-21T09:23:09.082Z,4.13
2019-03-21T09:28:15.167Z,3.93
2019-03-21T09:33:21.283Z,4.17
2019-03-21T09:38:27.421Z,3.30
2019-03-21T09:43:33.508Z,2.47
2019-03-21T09:48:39.594Z,3.03
2019-03-21T09:53:45.873Z,3.00
2019-03-21T09:58:51.937Z,2.93
2019-03-21T10:03:57.799Z,1.97
2019-03-21T10:09:05.548Z,2.60
2019-03-21T10:14:11.802Z,3.30
2019-03-21T10:19:18.063Z,2.97
2019-03-21T10:24:23.859Z,2.53
2019-03-21T10:29:30.044Z,3.03
2019-03-21T10:34:35.851Z,3.40
2019-03-21T10:39:41.805Z,3.07
2019-03-21T10:44:47.730Z,2.77
2019-03-21T10:49:53.832Z,3.03
2019-03-21T10:54:59.871Z,3.60
2019-03-21T11:00:08.625Z,3.45
2019-03-21T11:05:14.640Z,3.43
2019-03-21T11:10:20.610Z,3.50
2019-03-21T11:15:26.714Z,3.10
2019-03-21T11:20:40.109Z,3.75
2019-03-21T11:25:46.233Z,3.80
2019-03-21T11:30:52.249Z,4.23
2019-03-21T11:35:58.121Z,4.10
2019-03-21T11:41:03.985Z,3.30
2019-03-21T11:46:09.985Z,4.60
2019-03-21T11:51:15.955Z,3.90
2019-03-21T11:56:22.061Z,4.55
2019-03-21T12:01:28.252Z,5.13
2019-03-21T12:06:34.377Z,4.77
2019-03-21T12:11:41.422Z,5.70
2019-03-21T12:16:47.260Z,4.83
2019-03-21T12:21:53.132Z,5.47
2019-03-21T12:26:59.075Z,5.30
2019-03-21T12:32:05.102Z,6.17
2019-03-21T12:37:11.142Z,4.37
2019-03-21T12:42:17.069Z,4.22
2019-03-21T12:47:31.088Z,5.97
2019-03-21T12:52:41.033Z,6.00
2019-03-21T12:57:38.301Z,5.73
2019-03-21T13:02:44.530Z,4.40
2019-03-21T13:07:50.603Z,5.80
2019-03-21T13:12:56.693Z,4.70
2019-03-21T13:18:02.775Z,4.78
2019-03-21T13:23:08.813Z,4.50
2019-03-21T13:28:14.831Z,4.65
2019-03-21T13:33:20.875Z,4.62
2019-03-21T13:38:26.937Z,5.22
2019-03-21T13:43:32.722Z,5.20
2019-03-21T13:48:38.610Z,5.20
2019-03-21T13:53:44.533Z,5.08
2019-03-21T13:58:50.770Z,6.40
2019-03-21T14:03:56.825Z,4.97
2019-03-21T14:09:21.297Z,4.47
2019-03-21T14:14:27.306Z,4.50
2019-03-21T14:19:33.377Z,4.08
2019-03-21T14:24:39.472Z,4.58
2019-03-21T14:29:45.630Z,5.00
2019-03-21T14:34:51.698Z,4.25
2019-03-21T14:39:57.700Z,4.40
2019-03-21T14:45:03.962Z,4.00
2019-03-21T14:50:11.414Z,3.33
2019-03-21T14:55:17.490Z,3.20
2019-03-21T15:00:23.553Z,3.22
2019-03-21T15:05:29.616Z,4.03
2019-03-21T15:10:35.578Z,4.08
2019-03-21T15:15:41.782Z,5.40
2019-03-21T15:20:48.017Z,3.55
2019-03-21T15:25:54.064Z,4.22
2019-03-21T15:31:00.558Z,4.37
2019-03-21T15:36:06.485Z,4.25
2019-03-21T15:41:12.549Z,3.95
2019-03-21T15:46:18.658Z,4.15
2019-03-21T15:51:24.711Z,4.58
2019-03-21T15:56:30.818Z,4.10
2019-03-21T16:01:36.581Z,4.35
2019-03-21T16:06:42.506Z,4.12
2019-03-21T16:11:48.393Z,4.05
2019-03-21T16:16:54.232Z,4.70
2019-03-21T16:22:00.238Z,3.90
2019-03-21T16:27:06.451Z,3.98
2019-03-21T16:32:12.294Z,3.85
2019-03-21T16:37:18.290Z,3.72
2019-03-21T16:42:24.277Z,4.75
2019-03-21T16:47:30.229Z,3.50
2019-03-21T16:52:36.185Z,3.47
2019-03-21T16:57:42.252Z,5.45
2019-03-21T17:02:48.394Z,3.77
2019-03-21T17:07:54.319Z,3.80
2019-03-21T17:13:04.450Z,4.75
2019-03-21T17:18:08.243Z,4.22
2019-03-21T17:23:14.093Z,4.17
2019-03-21T17:28:20.050Z,5.00
2019-03-21T17:33:26.091Z,4.80
2019-03-21T17:38:32.133Z,4.62
2019-03-21T17:43:38.181Z,4.70
2019-03-21T17:48:44.154Z,5.35
2019-03-21T17:53:50.237Z,4.40
2019-03-21T17:58:56.206Z,4.40
2019-03-21T18:04:02.418Z,5.85
2019-03-21T18:09:09.359Z,6.35
2019-03-21T18:14:15.134Z,4.87
2019-03-21T18:19:21.306Z,4.60
2019-03-21T18:24:27.354Z,4.65
2019-03-21T18:29:33.337Z,5.60
2019-03-21T18:34:39.166Z,5.55
2019-03-21T18:39:45.154Z,5.78
2019-03-21T18:44:51.150Z,6.78
2019-03-21T18:49:57.059Z,7.33
2019-03-21T18:55:06.739Z,7.10
2019-03-21T19:00:11.262Z,6.97
2019-03-21T19:05:17.369Z,7.53
2019-03-21T19:10:23.538Z,8.30
2019-03-21T19:15:29.601Z,6.62
2019-03-21T19:20:35.506Z,6.60
2019-03-21T19:25:41.446Z,6.70
2019-03-21T19:30:47.353Z,6.90
2019-03-21T19:35:53.399Z,6.90
2019-03-21T19:40:59.430Z,8.05
2019-03-21T19:46:05.354Z,8.38
2019-03-21T19:51:11.367Z,9.45
2019-03-21T19:56:17.401Z,10.43
2019-03-21T20:01:23.492Z,8.43
2019-03-21T20:06:29.446Z,8.15
2019-03-21T20:11:35.530Z,8.58
2019-03-21T20:16:41.439Z,7.70
2019-03-21T20:21:48.363Z,9.10
2019-03-21T20:26:54.619Z,8.70
2019-03-21T20:32:00.625Z,9.70
2019-03-21T20:37:06.431Z,10.38
2019-03-21T20:42:12.425Z,8.73
2019-03-21T20:47:18.357Z,9.18
2019-03-21T20:52:24.463Z,11.38
2019-03-21T20:57:30.609Z,11.22
2019-03-21T21:02:36.678Z,9.88
2019-03-21T21:07:42.841Z,8.08
2019-03-21T21:12:48.678Z,9.35
2019-03-21T21:17:54.740Z,10.32
2019-03-21T21:23:00.696Z,14.23
2019-03-21T21:28:06.702Z,10.40
2019-03-21T21:33:12.572Z,10.82
2019-03-21T21:38:18.628Z,9.55
2019-03-21T21:43:24.747Z,10.80
2019-03-21T21:48:30.686Z,9.85
2019-03-21T21:53:36.487Z,9.68
2019-03-21T21:58:42.525Z,11.48
2019-03-21T22:03:48.617Z,10.58
2019-03-21T22:08:54.696Z,10.20
2019-03-21T22:14:00.700Z,11.20
2019-03-21T22:19:06.635Z,10.65
2019-03-21T22:24:12.815Z,10.58
2019-03-21T22:29:18.889Z,11.50
2019-03-21T22:34:24.782Z,9.88
2019-03-21T22:39:30.851Z,11.03
2019-03-21T22:44:36.903Z,10.63
2019-03-21T22:49:43.522Z,10.98
2019-03-21T22:54:49.391Z,10.82
2019-03-21T22:59:55.566Z,11.27
2019-03-21T23:05:01.636Z,11.25
2019-03-21T23:10:08.337Z,11.18
2019-03-21T23:15:14.584Z,11.23
2019-03-21T23:20:20.684Z,13.30
2019-03-21T23:25:26.772Z,13.53
2019-03-21T23:30:33.535Z,11.18
2019-03-21T23:35:39.557Z,11.70
2019-03-21T23:40:45.605Z,12.98
2019-03-21T23:45:51.691Z,12.28
2019-03-21T23:50:57.681Z,12.40
2019-03-21T23:56:03.766Z,13.35
